X  Chiuso Dati meteorologici dell'aviazione (METAR)     LIRA Ciampino–G. B. Pastine International Airport
Temperatura
34°C Temperatura
20°C Punto di rugiada
44% Umidità



Vento
13 KM/H
8 MPH
4 M/S
7 KTS



250°
OSO
Condizioni attuali

Chiaro Chiaro
Pressione 1011.92 (hPa) - 29.88 (inHg)
Visibilità 6.2 (miglio) - 10 (km)
Aeroporto
Aeroporto-code LIRA

Posizione: Ciampino–G. B. Pastine International Airport
Distanza: 6 (km)

Metar:
LIRA 301350Z 25007KT 210V320 CAVOK 34/20 Q1012

Ore: 30-07-2021 15:50 CEST